sensor_id;sensor_type;location;lat;lon;timestamp;P1;durP1;ratioP1;P2;durP2;ratioP2
4460;SDS011;2243;48.812;9.232;2023-12-14T00:00:22;1.53;;;1.53;;
4460;SDS011;2243;48.812;9.232;2023-12-14T00:02:53;1.90;;;1.80;;
4460;SDS011;2243;48.812;9.232;2023-12-14T00:05:23;3.43;;;1.60;;
4460;SDS011;2243;48.812;9.232;2023-12-14T00:07:54;2.10;;;2.00;;
4460;SDS011;2243;48.812;9.232;2023-12-14T00:10:25;2.23;;;2.13;;
4460;SDS011;2243;48.812;9.232;2023-12-14T00:12:57;2.47;;;2.23;;
4460;SDS011;2243;48.812;9.232;2023-12-14T00:15:31;2.30;;;2.20;;
4460;SDS011;2243;48.812;9.232;2023-12-14T00:18:02;2.30;;;2.20;;
4460;SDS011;2243;48.812;9.232;2023-12-14T00:20:33;2.50;;;2.40;;
4460;SDS011;2243;48.812;9.232;2023-12-14T00:23:07;4.67;;;2.80;;
4460;SDS011;2243;48.812;9.232;2023-12-14T00:25:38;3.00;;;2.50;;
4460;SDS011;2243;48.812;9.232;2023-12-14T00:28:09;3.93;;;2.47;;
4460;SDS011;2243;48.812;9.232;2023-12-14T00:30:40;2.63;;;2.43;;
4460;SDS011;2243;48.812;9.232;2023-12-14T00:33:14;3.17;;;2.87;;
4460;SDS011;2243;48.812;9.232;2023-12-14T00:35:45;3.30;;;3.00;;
4460;SDS011;2243;48.812;9.232;2023-12-14T00:38:16;2.90;;;2.70;;
4460;SDS011;2243;48.812;9.232;2023-12-14T00:40:47;2.77;;;2.57;;
4460;SDS011;2243;48.812;9.232;2023-12-14T00:43:27;2.77;;;2.53;;
4460;SDS011;2243;48.812;9.232;2023-12-14T00:45:58;2.80;;;2.60;;
4460;SDS011;2243;48.812;9.232;2023-12-14T00:48:29;2.63;;;2.43;;
4460;SDS011;2243;48.812;9.232;2023-12-14T00:51:00;2.57;;;2.43;;
4460;SDS011;2243;48.812;9.232;2023-12-14T00:53:32;2.67;;;2.47;;
4460;SDS011;2243;48.812;9.232;2023-12-14T00:56:03;2.80;;;2.60;;
4460;SDS011;2243;48.812;9.232;2023-12-14T00:58:34;2.97;;;2.77;;
4460;SDS011;2243;48.812;9.232;2023-12-14T01:01:05;5.00;;;2.70;;
4460;SDS011;2243;48.812;9.232;2023-12-14T01:03:36;2.07;;;1.97;;
4460;SDS011;2243;48.812;9.232;2023-12-14T01:06:07;3.40;;;2.67;;
4460;SDS011;2243;48.812;9.232;2023-12-14T01:08:38;3.90;;;3.10;;
4460;SDS011;2243;48.812;9.232;2023-12-14T01:11:09;2.80;;;2.60;;
4460;SDS011;2243;48.812;9.232;2023-12-14T01:13:41;2.73;;;2.63;;
4460;SDS011;2243;48.812;9.232;2023-12-14T01:16:12;5.87;;;2.90;;
4460;SDS011;2243;48.812;9.232;2023-12-14T01:18:43;2.57;;;2.40;;
4460;SDS011;2243;48.812;9.232;2023-12-14T01:21:15;2.43;;;2.33;;
4460;SDS011;2243;48.812;9.232;2023-12-14T01:23:46;3.00;;;2.80;;
4460;SDS011;2243;48.812;9.232;2023-12-14T01:26:16;3.30;;;3.00;;
4460;SDS011;2243;48.812;9.232;2023-12-14T01:28:48;2.70;;;2.50;;
4460;SDS011;2243;48.812;9.232;2023-12-14T01:31:19;3.60;;;3.30;;
4460;SDS011;2243;48.812;9.232;2023-12-14T01:33:53;3.10;;;2.90;;
4460;SDS011;2243;48.812;9.232;2023-12-14T01:36:25;2.83;;;2.70;;
4460;SDS011;2243;48.812;9.232;2023-12-14T01:38:56;3.50;;;3.30;;
4460;SDS011;2243;48.812;9.232;2023-12-14T01:41:27;3.40;;;3.20;;
4460;SDS011;2243;48.812;9.232;2023-12-14T01:43:58;4.67;;;2.73;;
4460;SDS011;2243;48.812;9.232;2023-12-14T01:46:30;3.13;;;2.93;;
4460;SDS011;2243;48.812;9.232;2023-12-14T01:49:01;4.53;;;3.50;;
4460;SDS011;2243;48.812;9.232;2023-12-14T01:51:31;3.30;;;3.17;;
4460;SDS011;2243;48.812;9.232;2023-12-14T01:54:04;3.47;;;3.27;;
4460;SDS011;2243;48.812;9.232;2023-12-14T01:56:34;3.30;;;3.10;;
4460;SDS011;2243;48.812;9.232;2023-12-14T01:59:05;3.23;;;3.03;;
4460;SDS011;2243;48.812;9.232;2023-12-14T02:01:44;3.70;;;3.40;;
4460;SDS011;2243;48.812;9.232;2023-12-14T02:04:17;2.97;;;2.80;;
4460;SDS011;2243;48.812;9.232;2023-12-14T02:06:48;3.23;;;3.03;;
4460;SDS011;2243;48.812;9.232;2023-12-14T02:09:19;6.27;;;3.63;;
4460;SDS011;2243;48.812;9.232;2023-12-14T02:11:50;3.10;;;2.90;;
4460;SDS011;2243;48.812;9.232;2023-12-14T02:14:21;4.70;;;3.40;;
4460;SDS011;2243;48.812;9.232;2023-12-14T02:16:53;4.23;;;3.60;;
4460;SDS011;2243;48.812;9.232;2023-12-14T02:19:24;2.87;;;2.60;;
4460;SDS011;2243;48.812;9.232;2023-12-14T02:21:55;3.07;;;2.97;;
4460;SDS011;2243;48.812;9.232;2023-12-14T02:24:26;4.50;;;3.60;;
4460;SDS011;2243;48.812;9.232;2023-12-14T02:26:57;3.50;;;3.03;;
4460;SDS011;2243;48.812;9.232;2023-12-14T02:29:33;7.53;;;3.30;;
4460;SDS011;2243;48.812;9.232;2023-12-14T02:32:04;3.53;;;3.20;;
4460;SDS011;2243;48.812;9.232;2023-12-14T02:34:35;3.50;;;3.13;;
4460;SDS011;2243;48.812;9.232;2023-12-14T02:37:06;3.60;;;3.40;;
4460;SDS011;2243;48.812;9.232;2023-12-14T02:39:38;3.47;;;3.17;;
4460;SDS011;2243;48.812;9.232;2023-12-14T02:42:09;3.20;;;2.87;;
4460;SDS011;2243;48.812;9.232;2023-12-14T02:44:40;2.87;;;2.77;;
4460;SDS011;2243;48.812;9.232;2023-12-14T02:47:10;5.13;;;3.07;;
4460;SDS011;2243;48.812;9.232;2023-12-14T02:49:42;3.80;;;3.40;;
4460;SDS011;2243;48.812;9.232;2023-12-14T02:52:14;3.60;;;3.30;;
4460;SDS011;2243;48.812;9.232;2023-12-14T02:54:45;3.53;;;3.33;;
4460;SDS011;2243;48.812;9.232;2023-12-14T02:57:16;2.90;;;2.80;;
4460;SDS011;2243;48.812;9.232;2023-12-14T02:59:47;3.80;;;3.27;;
4460;SDS011;2243;48.812;9.232;2023-12-14T03:02:18;4.07;;;3.67;;
4460;SDS011;2243;48.812;9.232;2023-12-14T03:04:49;4.27;;;3.87;;
4460;SDS011;2243;48.812;9.232;2023-12-14T03:07:20;5.73;;;3.87;;
4460;SDS011;2243;48.812;9.232;2023-12-14T03:09:51;3.53;;;3.33;;
4460;SDS011;2243;48.812;9.232;2023-12-14T03:12:22;5.37;;;2.67;;
4460;SDS011;2243;48.812;9.232;2023-12-14T03:14:53;3.60;;;3.30;;
4460;SDS011;2243;48.812;9.232;2023-12-14T03:17:24;3.63;;;3.43;;
4460;SDS011;2243;48.812;9.232;2023-12-14T03:19:54;3.30;;;3.00;;
4460;SDS011;2243;48.812;9.232;2023-12-14T03:22:25;2.60;;;2.50;;
4460;SDS011;2243;48.812;9.232;2023-12-14T03:24:56;5.33;;;3.17;;
4460;SDS011;2243;48.812;9.232;2023-12-14T03:27:27;3.23;;;3.03;;
4460;SDS011;2243;48.812;9.232;2023-12-14T03:29:58;5.10;;;2.83;;
4460;SDS011;2243;48.812;9.232;2023-12-14T03:32:29;2.70;;;2.60;;
4460;SDS011;2243;48.812;9.232;2023-12-14T03:35:00;4.40;;;3.20;;
4460;SDS011;2243;48.812;9.232;2023-12-14T03:37:31;3.30;;;3.07;;
4460;SDS011;2243;48.812;9.232;2023-12-14T03:40:03;7.80;;;3.70;;
4460;SDS011;2243;48.812;9.232;2023-12-14T03:42:34;5.50;;;2.87;;
4460;SDS011;2243;48.812;9.232;2023-12-14T03:45:06;3.67;;;2.80;;
4460;SDS011;2243;48.812;9.232;2023-12-14T03:47:37;3.60;;;2.87;;
4460;SDS011;2243;48.812;9.232;2023-12-14T03:50:10;3.70;;;3.30;;
4460;SDS011;2243;48.812;9.232;2023-12-14T03:52:43;3.70;;;2.70;;
4460;SDS011;2243;48.812;9.232;2023-12-14T03:55:14;2.50;;;2.30;;
4460;SDS011;2243;48.812;9.232;2023-12-14T03:57:48;2.90;;;2.70;;
4460;SDS011;2243;48.812;9.232;2023-12-14T04:00:19;2.23;;;2.13;;
4460;SDS011;2243;48.812;9.232;2023-12-14T04:02:50;2.30;;;2.10;;
4460;SDS011;2243;48.812;9.232;2023-12-14T04:05:22;2.20;;;1.87;;
4460;SDS011;2243;48.812;9.232;2023-12-14T04:07:53;2.90;;;2.60;;
4460;SDS011;2243;48.812;9.232;2023-12-14T04:10:24;2.60;;;2.40;;
4460;SDS011;2243;48.812;9.232;2023-12-14T04:12:55;2.20;;;2.10;;
4460;SDS011;2243;48.812;9.232;2023-12-14T04:15:26;2.60;;;2.40;;
4460;SDS011;2243;48.812;9.232;2023-12-14T04:17:57;3.37;;;2.20;;
4460;SDS011;2243;48.812;9.232;2023-12-14T04:20:28;2.70;;;2.50;;
4460;SDS011;2243;48.812;9.232;2023-12-14T04:22:59;5.20;;;2.90;;
4460;SDS011;2243;48.812;9.232;2023-12-14T04:25:30;2.97;;;2.80;;
4460;SDS011;2243;48.812;9.232;2023-12-14T04:28:01;6.40;;;2.37;;
4460;SDS011;2243;48.812;9.232;2023-12-14T04:30:32;3.00;;;2.80;;
4460;SDS011;2243;48.812;9.232;2023-12-14T04:33:03;3.30;;;2.97;;
4460;SDS011;2243;48.812;9.232;2023-12-14T04:35:34;3.37;;;3.10;;
4460;SDS011;2243;48.812;9.232;2023-12-14T04:38:07;4.50;;;3.33;;
4460;SDS011;2243;48.812;9.232;2023-12-14T04:40:38;4.17;;;3.63;;
4460;SDS011;2243;48.812;9.232;2023-12-14T04:43:12;4.10;;;3.47;;
4460;SDS011;2243;48.812;9.232;2023-12-14T04:45:43;3.80;;;3.50;;
4460;SDS011;2243;48.812;9.232;2023-12-14T04:48:14;3.60;;;3.30;;
4460;SDS011;2243;48.812;9.232;2023-12-14T04:50:45;4.27;;;3.80;;
4460;SDS011;2243;48.812;9.232;2023-12-14T04:53:16;5.17;;;3.80;;
4460;SDS011;2243;48.812;9.232;2023-12-14T04:55:47;4.50;;;4.10;;
4460;SDS011;2243;48.812;9.232;2023-12-14T04:58:18;4.57;;;4.17;;
4460;SDS011;2243;48.812;9.232;2023-12-14T05:00:49;4.47;;;3.90;;
4460;SDS011;2243;48.812;9.232;2023-12-14T05:03:20;5.67;;;4.63;;
4460;SDS011;2243;48.812;9.232;2023-12-14T05:05:51;5.53;;;4.00;;
4460;SDS011;2243;48.812;9.232;2023-12-14T05:08:22;5.17;;;4.17;;
4460;SDS011;2243;48.812;9.232;2023-12-14T05:10:54;4.33;;;3.93;;
4460;SDS011;2243;48.812;9.232;2023-12-14T05:13:25;4.30;;;3.90;;
4460;SDS011;2243;48.812;9.232;2023-12-14T05:15:56;4.70;;;4.30;;
4460;SDS011;2243;48.812;9.232;2023-12-14T05:18:29;5.77;;;3.97;;
4460;SDS011;2243;48.812;9.232;2023-12-14T05:21:00;4.47;;;4.00;;
4460;SDS011;2243;48.812;9.232;2023-12-14T05:23:31;4.83;;;4.43;;
4460;SDS011;2243;48.812;9.232;2023-12-14T05:26:02;3.70;;;3.40;;
4460;SDS011;2243;48.812;9.232;2023-12-14T05:28:34;4.40;;;4.10;;
4460;SDS011;2243;48.812;9.232;2023-12-14T05:31:05;4.33;;;3.93;;
4460;SDS011;2243;48.812;9.232;2023-12-14T05:33:36;3.93;;;3.63;;
4460;SDS011;2243;48.812;9.232;2023-12-14T05:36:09;3.83;;;3.30;;
4460;SDS011;2243;48.812;9.232;2023-12-14T05:38:41;4.33;;;3.93;;
4460;SDS011;2243;48.812;9.232;2023-12-14T05:41:14;4.37;;;3.37;;
4460;SDS011;2243;48.812;9.232;2023-12-14T05:43:46;3.93;;;3.63;;
4460;SDS011;2243;48.812;9.232;2023-12-14T05:46:21;4.23;;;3.87;;
4460;SDS011;2243;48.812;9.232;2023-12-14T05:48:53;4.07;;;3.77;;
4460;SDS011;2243;48.812;9.232;2023-12-14T05:51:28;4.43;;;4.03;;
4460;SDS011;2243;48.812;9.232;2023-12-14T05:54:00;5.23;;;4.60;;
4460;SDS011;2243;48.812;9.232;2023-12-14T05:56:31;4.90;;;4.50;;
4460;SDS011;2243;48.812;9.232;2023-12-14T05:59:04;4.97;;;4.53;;
4460;SDS011;2243;48.812;9.232;2023-12-14T06:01:35;7.50;;;4.30;;
4460;SDS011;2243;48.812;9.232;2023-12-14T06:04:07;4.77;;;4.30;;
4460;SDS011;2243;48.812;9.232;2023-12-14T06:06:38;4.43;;;4.07;;
4460;SDS011;2243;48.812;9.232;2023-12-14T06:09:10;5.53;;;4.33;;
4460;SDS011;2243;48.812;9.232;2023-12-14T06:11:41;3.97;;;3.50;;
4460;SDS011;2243;48.812;9.232;2023-12-14T06:14:12;4.20;;;3.73;;
4460;SDS011;2243;48.812;9.232;2023-12-14T06:16:43;3.53;;;3.33;;
4460;SDS011;2243;48.812;9.232;2023-12-14T06:19:14;3.57;;;3.20;;
4460;SDS011;2243;48.812;9.232;2023-12-14T06:21:45;5.50;;;4.20;;
4460;SDS011;2243;48.812;9.232;2023-12-14T06:24:17;6.20;;;4.60;;
4460;SDS011;2243;48.812;9.232;2023-12-14T06:26:48;4.37;;;3.77;;
4460;SDS011;2243;48.812;9.232;2023-12-14T06:29:19;6.90;;;4.80;;
4460;SDS011;2243;48.812;9.232;2023-12-14T06:31:50;18.13;;;8.43;;
4460;SDS011;2243;48.812;9.232;2023-12-14T06:34:21;8.80;;;5.50;;
4460;SDS011;2243;48.812;9.232;2023-12-14T06:36:52;4.90;;;4.33;;
4460;SDS011;2243;48.812;9.232;2023-12-14T06:39:23;3.93;;;3.63;;
4460;SDS011;2243;48.812;9.232;2023-12-14T06:41:55;5.40;;;3.60;;
4460;SDS011;2243;48.812;9.232;2023-12-14T06:44:27;3.33;;;3.20;;
4460;SDS011;2243;48.812;9.232;2023-12-14T06:46:58;3.90;;;3.53;;
4460;SDS011;2243;48.812;9.232;2023-12-14T06:49:29;5.90;;;3.53;;
4460;SDS011;2243;48.812;9.232;2023-12-14T06:52:01;3.83;;;3.53;;
4460;SDS011;2243;48.812;9.232;2023-12-14T06:54:33;3.57;;;3.27;;
4460;SDS011;2243;48.812;9.232;2023-12-14T06:57:04;3.90;;;3.60;;
4460;SDS011;2243;48.812;9.232;2023-12-14T06:59:36;3.77;;;3.57;;
4460;SDS011;2243;48.812;9.232;2023-12-14T07:02:07;3.43;;;3.23;;
4460;SDS011;2243;48.812;9.232;2023-12-14T07:04:38;3.87;;;3.57;;
4460;SDS011;2243;48.812;9.232;2023-12-14T07:07:09;3.63;;;3.33;;
4460;SDS011;2243;48.812;9.232;2023-12-14T07:09:40;3.97;;;2.90;;
4460;SDS011;2243;48.812;9.232;2023-12-14T07:12:12;3.57;;;3.30;;
4460;SDS011;2243;48.812;9.232;2023-12-14T07:14:44;3.43;;;3.13;;
4460;SDS011;2243;48.812;9.232;2023-12-14T07:17:15;3.40;;;3.10;;
4460;SDS011;2243;48.812;9.232;2023-12-14T07:19:46;2.60;;;2.50;;
4460;SDS011;2243;48.812;9.232;2023-12-14T07:22:17;3.43;;;3.17;;
4460;SDS011;2243;48.812;9.232;2023-12-14T07:24:48;4.70;;;3.27;;
4460;SDS011;2243;48.812;9.232;2023-12-14T07:27:28;3.83;;;3.40;;
4460;SDS011;2243;48.812;9.232;2023-12-14T07:29:59;3.33;;;3.13;;
4460;SDS011;2243;48.812;9.232;2023-12-14T07:32:30;3.33;;;3.13;;
4460;SDS011;2243;48.812;9.232;2023-12-14T07:35:02;3.90;;;3.43;;
4460;SDS011;2243;48.812;9.232;2023-12-14T07:37:34;3.43;;;3.23;;
4460;SDS011;2243;48.812;9.232;2023-12-14T07:40:05;4.20;;;3.90;;
4460;SDS011;2243;48.812;9.232;2023-12-14T07:42:37;4.40;;;4.10;;
4460;SDS011;2243;48.812;9.232;2023-12-14T07:45:08;3.83;;;3.63;;
4460;SDS011;2243;48.812;9.232;2023-12-14T07:47:39;3.90;;;3.60;;
4460;SDS011;2243;48.812;9.232;2023-12-14T07:50:12;7.20;;;4.70;;
4460;SDS011;2243;48.812;9.232;2023-12-14T07:52:44;4.37;;;4.00;;
4460;SDS011;2243;48.812;9.232;2023-12-14T07:55:15;6.70;;;4.70;;
4460;SDS011;2243;48.812;9.232;2023-12-14T07:57:46;5.80;;;4.40;;
4460;SDS011;2243;48.812;9.232;2023-12-14T08:00:17;4.73;;;4.30;;
4460;SDS011;2243;48.812;9.232;2023-12-14T08:02:48;4.67;;;4.27;;
4460;SDS011;2243;48.812;9.232;2023-12-14T08:05:19;5.83;;;4.20;;
4460;SDS011;2243;48.812;9.232;2023-12-14T08:07:50;6.30;;;5.20;;
4460;SDS011;2243;48.812;9.232;2023-12-14T08:10:22;7.30;;;4.77;;
4460;SDS011;2243;48.812;9.232;2023-12-14T08:12:54;4.83;;;4.10;;
4460;SDS011;2243;48.812;9.232;2023-12-14T08:15:25;6.30;;;4.93;;
4460;SDS011;2243;48.812;9.232;2023-12-14T08:17:56;9.27;;;5.57;;
4460;SDS011;2243;48.812;9.232;2023-12-14T08:20:27;4.90;;;4.47;;
4460;SDS011;2243;48.812;9.232;2023-12-14T08:22:58;6.27;;;5.33;;
4460;SDS011;2243;48.812;9.232;2023-12-14T08:25:29;8.53;;;5.50;;
4460;SDS011;2243;48.812;9.232;2023-12-14T08:28:00;5.67;;;5.10;;
4460;SDS011;2243;48.812;9.232;2023-12-14T08:30:34;6.33;;;5.47;;
4460;SDS011;2243;48.812;9.232;2023-12-14T08:33:06;6.27;;;5.20;;
4460;SDS011;2243;48.812;9.232;2023-12-14T08:35:37;4.87;;;4.37;;
4460;SDS011;2243;48.812;9.232;2023-12-14T08:38:08;5.07;;;4.53;;
4460;SDS011;2243;48.812;9.232;2023-12-14T08:40:41;9.47;;;5.20;;
4460;SDS011;2243;48.812;9.232;2023-12-14T08:43:12;5.10;;;4.63;;
4460;SDS011;2243;48.812;9.232;2023-12-14T08:45:44;7.70;;;4.43;;
4460;SDS011;2243;48.812;9.232;2023-12-14T08:48:14;8.97;;;5.17;;
4460;SDS011;2243;48.812;9.232;2023-12-14T08:50:46;5.30;;;4.90;;
4460;SDS011;2243;48.812;9.232;2023-12-14T08:53:17;9.63;;;5.53;;
4460;SDS011;2243;48.812;9.232;2023-12-14T08:55:48;6.67;;;4.90;;
4460;SDS011;2243;48.812;9.232;2023-12-14T08:58:19;4.80;;;4.40;;
4460;SDS011;2243;48.812;9.232;2023-12-14T09:00:50;7.40;;;6.13;;
4460;SDS011;2243;48.812;9.232;2023-12-14T09:03:23;8.17;;;5.40;;
4460;SDS011;2243;48.812;9.232;2023-12-14T09:05:55;6.10;;;5.23;;
4460;SDS011;2243;48.812;9.232;2023-12-14T09:08:27;6.83;;;6.07;;
4460;SDS011;2243;48.812;9.232;2023-12-14T09:10:58;8.07;;;7.30;;
4460;SDS011;2243;48.812;9.232;2023-12-14T09:13:29;8.00;;;6.60;;
4460;SDS011;2243;48.812;9.232;2023-12-14T09:16:00;6.17;;;5.40;;
4460;SDS011;2243;48.812;9.232;2023-12-14T09:18:31;10.57;;;6.43;;
4460;SDS011;2243;48.812;9.232;2023-12-14T09:21:02;6.50;;;5.83;;
4460;SDS011;2243;48.812;9.232;2023-12-14T09:23:34;8.57;;;6.93;;
4460;SDS011;2243;48.812;9.232;2023-12-14T09:26:05;7.80;;;6.13;;
4460;SDS011;2243;48.812;9.232;2023-12-14T09:28:36;7.20;;;6.50;;
4460;SDS011;2243;48.812;9.232;2023-12-14T09:31:07;7.30;;;6.00;;
4460;SDS011;2243;48.812;9.232;2023-12-14T09:33:38;9.83;;;6.80;;
4460;SDS011;2243;48.812;9.232;2023-12-14T09:36:09;7.90;;;5.97;;
4460;SDS011;2243;48.812;9.232;2023-12-14T09:38:40;8.70;;;6.37;;
4460;SDS011;2243;48.812;9.232;2023-12-14T09:41:11;7.80;;;6.93;;
4460;SDS011;2243;48.812;9.232;2023-12-14T09:43:43;7.73;;;6.63;;
4460;SDS011;2243;48.812;9.232;2023-12-14T09:46:16;6.80;;;6.10;;
4460;SDS011;2243;48.812;9.232;2023-12-14T09:48:51;10.03;;;7.43;;
4460;SDS011;2243;48.812;9.232;2023-12-14T09:51:24;7.90;;;6.57;;
4460;SDS011;2243;48.812;9.232;2023-12-14T09:53:57;14.43;;;6.93;;
4460;SDS011;2243;48.812;9.232;2023-12-14T09:56:28;8.10;;;7.23;;
4460;SDS011;2243;48.812;9.232;2023-12-14T09:59:00;14.33;;;6.37;;
4460;SDS011;2243;48.812;9.232;2023-12-14T10:01:32;12.50;;;7.70;;
4460;SDS011;2243;48.812;9.232;2023-12-14T10:04:07;8.87;;;7.60;;
4460;SDS011;2243;48.812;9.232;2023-12-14T10:06:40;8.70;;;7.77;;
4460;SDS011;2243;48.812;9.232;2023-12-14T10:09:14;9.33;;;7.57;;
4460;SDS011;2243;48.812;9.232;2023-12-14T10:11:49;11.10;;;8.40;;
4460;SDS011;2243;48.812;9.232;2023-12-14T10:14:37;9.07;;;7.17;;
4460;SDS011;2243;48.812;9.232;2023-12-14T10:17:18;10.03;;;7.50;;
4460;SDS011;2243;48.812;9.232;2023-12-14T10:20:02;9.27;;;7.33;;
4460;SDS011;2243;48.812;9.232;2023-12-14T10:22:35;9.87;;;7.47;;
4460;SDS011;2243;48.812;9.232;2023-12-14T10:25:07;9.30;;;6.90;;
4460;SDS011;2243;48.812;9.232;2023-12-14T10:27:40;10.03;;;6.90;;
4460;SDS011;2243;48.812;9.232;2023-12-14T10:30:11;8.60;;;7.40;;
4460;SDS011;2243;48.812;9.232;2023-12-14T10:32:44;9.23;;;7.10;;
4460;SDS011;2243;48.812;9.232;2023-12-14T10:35:19;9.43;;;6.80;;
4460;SDS011;2243;48.812;9.232;2023-12-14T10:37:52;8.47;;;7.13;;
4460;SDS011;2243;48.812;9.232;2023-12-14T10:40:24;10.20;;;7.23;;
4460;SDS011;2243;48.812;9.232;2023-12-14T10:42:57;11.67;;;8.30;;
4460;SDS011;2243;48.812;9.232;2023-12-14T10:45:34;9.10;;;7.43;;
4460;SDS011;2243;48.812;9.232;2023-12-14T10:48:06;8.90;;;6.80;;
4460;SDS011;2243;48.812;9.232;2023-12-14T10:50:37;9.57;;;6.83;;
4460;SDS011;2243;48.812;9.232;2023-12-14T10:53:08;8.70;;;6.63;;
4460;SDS011;2243;48.812;9.232;2023-12-14T10:55:41;11.57;;;7.67;;
4460;SDS011;2243;48.812;9.232;2023-12-14T10:58:14;8.77;;;6.40;;
4460;SDS011;2243;48.812;9.232;2023-12-14T11:00:57;12.07;;;8.87;;
4460;SDS011;2243;48.812;9.232;2023-12-14T11:03:34;12.63;;;7.10;;
4460;SDS011;2243;48.812;9.232;2023-12-14T11:08:56;13.60;;;7.30;;
4460;SDS011;2243;48.812;9.232;2023-12-14T11:11:42;11.37;;;6.60;;
4460;SDS011;2243;48.812;9.232;2023-12-14T11:14:24;10.90;;;6.10;;
4460;SDS011;2243;48.812;9.232;2023-12-14T11:17:05;8.00;;;5.57;;
4460;SDS011;2243;48.812;9.232;2023-12-14T11:19:37;7.57;;;5.93;;
4460;SDS011;2243;48.812;9.232;2023-12-14T11:22:12;10.90;;;5.87;;
4460;SDS011;2243;48.812;9.232;2023-12-14T11:24:54;5.97;;;4.90;;
4460;SDS011;2243;48.812;9.232;2023-12-14T11:27:26;7.30;;;5.80;;
4460;SDS011;2243;48.812;9.232;2023-12-14T11:29:59;7.13;;;5.50;;
4460;SDS011;2243;48.812;9.232;2023-12-14T11:32:32;7.83;;;5.27;;
4460;SDS011;2243;48.812;9.232;2023-12-14T11:35:04;5.40;;;5.00;;
4460;SDS011;2243;48.812;9.232;2023-12-14T11:37:38;8.27;;;4.43;;
4460;SDS011;2243;48.812;9.232;2023-12-14T11:40:10;5.87;;;5.30;;
4460;SDS011;2243;48.812;9.232;2023-12-14T11:42:43;5.13;;;4.63;;
4460;SDS011;2243;48.812;9.232;2023-12-14T11:45:16;6.23;;;4.83;;
4460;SDS011;2243;48.812;9.232;2023-12-14T11:47:47;5.90;;;4.63;;
4460;SDS011;2243;48.812;9.232;2023-12-14T11:50:18;12.30;;;5.93;;
4460;SDS011;2243;48.812;9.232;2023-12-14T11:52:50;6.67;;;4.60;;
4460;SDS011;2243;48.812;9.232;2023-12-14T11:55:22;7.23;;;5.23;;
4460;SDS011;2243;48.812;9.232;2023-12-14T11:57:53;5.23;;;4.73;;
4460;SDS011;2243;48.812;9.232;2023-12-14T12:00:25;12.23;;;6.23;;
4460;SDS011;2243;48.812;9.232;2023-12-14T12:03:12;7.40;;;4.97;;
4460;SDS011;2243;48.812;9.232;2023-12-14T12:05:46;5.27;;;4.77;;
4460;SDS011;2243;48.812;9.232;2023-12-14T12:08:22;6.23;;;4.73;;
4460;SDS011;2243;48.812;9.232;2023-12-14T12:10:54;7.10;;;4.83;;
4460;SDS011;2243;48.812;9.232;2023-12-14T12:13:27;5.20;;;4.70;;
4460;SDS011;2243;48.812;9.232;2023-12-14T12:15:59;4.53;;;3.90;;
4460;SDS011;2243;48.812;9.232;2023-12-14T12:18:31;3.00;;;2.80;;
4460;SDS011;2243;48.812;9.232;2023-12-14T12:21:03;3.77;;;3.47;;
4460;SDS011;2243;48.812;9.232;2023-12-14T12:23:36;2.70;;;2.60;;
4460;SDS011;2243;48.812;9.232;2023-12-14T12:26:15;5.83;;;3.50;;
4460;SDS011;2243;48.812;9.232;2023-12-14T12:28:49;2.67;;;2.47;;
4460;SDS011;2243;48.812;9.232;2023-12-14T12:31:23;4.13;;;2.60;;
4460;SDS011;2243;48.812;9.232;2023-12-14T12:33:54;2.93;;;2.73;;
4460;SDS011;2243;48.812;9.232;2023-12-14T12:36:25;2.80;;;2.60;;
4460;SDS011;2243;48.812;9.232;2023-12-14T12:39:08;3.13;;;2.93;;
4460;SDS011;2243;48.812;9.232;2023-12-14T12:41:39;4.13;;;3.83;;
4460;SDS011;2243;48.812;9.232;2023-12-14T12:44:10;3.03;;;2.80;;
4460;SDS011;2243;48.812;9.232;2023-12-14T12:46:41;5.70;;;4.27;;
4460;SDS011;2243;48.812;9.232;2023-12-14T12:49:12;3.83;;;3.63;;
4460;SDS011;2243;48.812;9.232;2023-12-14T12:51:46;3.40;;;3.20;;
4460;SDS011;2243;48.812;9.232;2023-12-14T12:54:18;5.10;;;4.30;;
4460;SDS011;2243;48.812;9.232;2023-12-14T12:56:49;4.77;;;4.37;;
4460;SDS011;2243;48.812;9.232;2023-12-14T12:59:23;4.17;;;3.83;;
4460;SDS011;2243;48.812;9.232;2023-12-14T13:01:58;5.27;;;4.23;;
4460;SDS011;2243;48.812;9.232;2023-12-14T13:04:29;5.00;;;4.60;;
4460;SDS011;2243;48.812;9.232;2023-12-14T13:07:01;3.87;;;3.60;;
4460;SDS011;2243;48.812;9.232;2023-12-14T13:09:34;3.20;;;3.00;;
4460;SDS011;2243;48.812;9.232;2023-12-14T13:12:06;3.60;;;3.33;;
4460;SDS011;2243;48.812;9.232;2023-12-14T13:14:37;3.90;;;3.60;;
4460;SDS011;2243;48.812;9.232;2023-12-14T13:17:08;5.53;;;3.60;;
4460;SDS011;2243;48.812;9.232;2023-12-14T13:19:39;6.73;;;3.80;;
4460;SDS011;2243;48.812;9.232;2023-12-14T13:22:10;4.13;;;2.97;;
4460;SDS011;2243;48.812;9.232;2023-12-14T13:24:41;4.03;;;3.43;;
4460;SDS011;2243;48.812;9.232;2023-12-14T13:27:19;3.37;;;3.10;;
4460;SDS011;2243;48.812;9.232;2023-12-14T13:29:50;3.70;;;3.40;;
4460;SDS011;2243;48.812;9.232;2023-12-14T13:32:21;3.17;;;2.97;;
4460;SDS011;2243;48.812;9.232;2023-12-14T13:34:52;4.23;;;3.93;;
4460;SDS011;2243;48.812;9.232;2023-12-14T13:37:23;4.43;;;4.00;;
4460;SDS011;2243;48.812;9.232;2023-12-14T13:39:54;3.97;;;3.67;;
4460;SDS011;2243;48.812;9.232;2023-12-14T13:42:26;4.23;;;3.30;;
4460;SDS011;2243;48.812;9.232;2023-12-14T13:44:57;4.40;;;4.10;;
4460;SDS011;2243;48.812;9.232;2023-12-14T13:47:30;3.27;;;3.07;;
4460;SDS011;2243;48.812;9.232;2023-12-14T13:50:01;3.40;;;3.10;;
4460;SDS011;2243;48.812;9.232;2023-12-14T13:52:34;3.17;;;2.87;;
4460;SDS011;2243;48.812;9.232;2023-12-14T13:55:05;3.30;;;3.10;;
4460;SDS011;2243;48.812;9.232;2023-12-14T13:57:36;3.47;;;2.83;;
4460;SDS011;2243;48.812;9.232;2023-12-14T14:00:10;6.43;;;3.50;;
4460;SDS011;2243;48.812;9.232;2023-12-14T14:02:42;4.47;;;3.27;;
4460;SDS011;2243;48.812;9.232;2023-12-14T14:05:13;4.17;;;3.00;;
4460;SDS011;2243;48.812;9.232;2023-12-14T14:07:53;5.87;;;4.10;;
4460;SDS011;2243;48.812;9.232;2023-12-14T14:10:24;4.03;;;3.73;;
4460;SDS011;2243;48.812;9.232;2023-12-14T14:12:57;5.83;;;3.53;;
4460;SDS011;2243;48.812;9.232;2023-12-14T14:15:28;5.10;;;3.70;;
4460;SDS011;2243;48.812;9.232;2023-12-14T14:17:59;4.97;;;4.33;;
4460;SDS011;2243;48.812;9.232;2023-12-14T14:20:34;4.67;;;4.23;;
4460;SDS011;2243;48.812;9.232;2023-12-14T14:23:05;7.80;;;4.87;;
4460;SDS011;2243;48.812;9.232;2023-12-14T14:25:36;7.13;;;4.63;;
4460;SDS011;2243;48.812;9.232;2023-12-14T14:28:07;5.73;;;5.13;;
4460;SDS011;2243;48.812;9.232;2023-12-14T14:30:38;6.50;;;4.87;;
4460;SDS011;2243;48.812;9.232;2023-12-14T14:33:09;5.17;;;4.67;;
4460;SDS011;2243;48.812;9.232;2023-12-14T14:35:50;7.00;;;5.57;;
4460;SDS011;2243;48.812;9.232;2023-12-14T14:38:21;7.57;;;6.07;;
4460;SDS011;2243;48.812;9.232;2023-12-14T14:40:56;7.93;;;6.00;;
4460;SDS011;2243;48.812;9.232;2023-12-14T14:43:29;10.17;;;6.30;;
4460;SDS011;2243;48.812;9.232;2023-12-14T14:46:00;7.87;;;6.90;;
4460;SDS011;2243;48.812;9.232;2023-12-14T14:48:31;7.10;;;6.40;;
4460;SDS011;2243;48.812;9.232;2023-12-14T14:51:08;10.37;;;7.17;;
4460;SDS011;2243;48.812;9.232;2023-12-14T14:53:39;8.70;;;7.37;;
4460;SDS011;2243;48.812;9.232;2023-12-14T14:56:14;9.60;;;6.70;;
4460;SDS011;2243;48.812;9.232;2023-12-14T14:58:46;9.40;;;6.83;;
4460;SDS011;2243;48.812;9.232;2023-12-14T15:01:17;9.03;;;7.47;;
4460;SDS011;2243;48.812;9.232;2023-12-14T15:03:49;10.53;;;7.10;;
4460;SDS011;2243;48.812;9.232;2023-12-14T15:06:20;14.00;;;7.63;;
4460;SDS011;2243;48.812;9.232;2023-12-14T15:08:53;8.43;;;7.07;;
4460;SDS011;2243;48.812;9.232;2023-12-14T15:11:24;12.20;;;8.17;;
4460;SDS011;2243;48.812;9.232;2023-12-14T15:13:55;11.10;;;7.57;;
4460;SDS011;2243;48.812;9.232;2023-12-14T15:16:26;9.50;;;7.47;;
4460;SDS011;2243;48.812;9.232;2023-12-14T15:19:00;13.13;;;8.77;;
4460;SDS011;2243;48.812;9.232;2023-12-14T15:21:32;12.67;;;7.90;;
4460;SDS011;2243;48.812;9.232;2023-12-14T15:24:08;16.70;;;9.83;;
4460;SDS011;2243;48.812;9.232;2023-12-14T15:26:42;16.37;;;9.53;;
4460;SDS011;2243;48.812;9.232;2023-12-14T15:29:14;13.20;;;9.60;;
4460;SDS011;2243;48.812;9.232;2023-12-14T15:31:45;12.77;;;8.63;;
4460;SDS011;2243;48.812;9.232;2023-12-14T15:34:16;13.90;;;9.93;;
4460;SDS011;2243;48.812;9.232;2023-12-14T15:36:49;15.73;;;9.77;;
4460;SDS011;2243;48.812;9.232;2023-12-14T15:39:20;16.30;;;10.60;;
4460;SDS011;2243;48.812;9.232;2023-12-14T15:41:54;16.43;;;9.77;;
4460;SDS011;2243;48.812;9.232;2023-12-14T15:44:30;16.50;;;10.63;;
4460;SDS011;2243;48.812;9.232;2023-12-14T15:47:01;18.57;;;10.73;;